createdAt,value
2017-12-06T00:00:31.112Z,47.37
2017-12-06T00:02:58.623Z,35.37
2017-12-06T00:05:26.678Z,35.87
2017-12-06T00:07:54.167Z,41.07
2017-12-06T00:10:21.895Z,43.83
2017-12-06T00:13:05.052Z,37.97
2017-12-06T00:15:38.143Z,37.97
2017-12-06T00:18:06.410Z,41.50
2017-12-06T00:20:33.968Z,43.90
2017-12-06T00:23:01.470Z,37.60
2017-12-06T00:25:29.068Z,38.03
2017-12-06T00:27:56.561Z,42.20
2017-12-06T00:30:24.243Z,34.70
2017-12-06T00:32:51.748Z,43.10
2017-12-06T00:35:19.783Z,33.40
2017-12-06T00:37:47.878Z,35.33
2017-12-06T00:40:15.947Z,33.17
2017-12-06T00:42:43.455Z,34.60
2017-12-06T00:45:11.785Z,41.67
2017-12-06T00:47:39.296Z,43.67
2017-12-06T00:50:06.801Z,46.17
2017-12-06T00:52:34.709Z,34.07
2017-12-06T00:55:02.220Z,39.80
2017-12-06T00:57:29.984Z,37.60
2017-12-06T00:59:57.488Z,31.63
2017-12-06T01:02:25.484Z,43.83
2017-12-06T01:04:52.979Z,35.27
2017-12-06T01:07:21.995Z,31.10
2017-12-06T01:09:49.725Z,41.67
2017-12-06T01:12:17.229Z,36.30
2017-12-06T01:14:44.944Z,37.73
2017-12-06T01:17:12.451Z,37.70
2017-12-06T01:19:40.170Z,36.23
2017-12-06T01:22:08.280Z,34.90
2017-12-06T01:24:35.740Z,41.03
2017-12-06T01:27:03.426Z,33.87
2017-12-06T01:29:30.927Z,35.73
2017-12-06T01:31:58.432Z,38.67
2017-12-06T01:34:26.089Z,46.47
2017-12-06T01:36:53.903Z,41.03
2017-12-06T01:39:21.659Z,30.17
2017-12-06T01:41:49.943Z,34.60
2017-12-06T01:44:18.212Z,32.70
2017-12-06T01:46:45.832Z,40.83
2017-12-06T01:49:13.337Z,42.97
2017-12-06T01:51:40.836Z,38.23
2017-12-06T01:54:08.380Z,30.77
2017-12-06T01:56:36.275Z,43.17
2017-12-06T01:59:04.080Z,34.50
2017-12-06T02:01:31.579Z,25.10
2017-12-06T02:03:59.577Z,36.80
2017-12-06T02:06:27.080Z,33.00
2017-12-06T02:08:54.596Z,44.93
2017-12-06T02:11:22.239Z,36.30
2017-12-06T02:13:49.752Z,37.97
2017-12-06T02:16:17.807Z,32.93
2017-12-06T02:18:45.567Z,30.80
2017-12-06T02:21:13.076Z,41.17
2017-12-06T02:23:40.787Z,30.00
2017-12-06T02:26:08.551Z,29.87
2017-12-06T02:28:36.315Z,27.77
2017-12-06T02:31:04.079Z,32.00
2017-12-06T02:33:31.588Z,29.07
2017-12-06T02:35:59.104Z,35.67
2017-12-06T02:38:27.268Z,30.60
2017-12-06T02:41:06.632Z,25.23
2017-12-06T02:43:46.049Z,29.60
2017-12-06T02:46:13.560Z,31.30
2017-12-06T02:48:41.471Z,24.73
2017-12-06T02:51:09.223Z,30.37
2017-12-06T02:53:36.996Z,29.20
2017-12-06T02:56:04.551Z,28.37
2017-12-06T02:58:32.074Z,26.73
2017-12-06T03:00:59.646Z,34.33
2017-12-06T03:03:27.151Z,29.57
2017-12-06T03:05:54.892Z,30.83
2017-12-06T03:08:22.395Z,33.43
2017-12-06T03:10:50.112Z,31.00
2017-12-06T03:13:18.791Z,28.73
2017-12-06T03:15:46.841Z,29.40
2017-12-06T03:18:14.633Z,29.83
2017-12-06T03:20:42.391Z,30.77
2017-12-06T03:23:10.159Z,35.63
2017-12-06T03:25:38.227Z,26.53
2017-12-06T03:28:05.740Z,35.40
2017-12-06T03:30:34.066Z,19.63
2017-12-06T03:33:01.823Z,15.00
2017-12-06T03:35:29.332Z,27.13
2017-12-06T03:37:56.905Z,24.70
2017-12-06T03:40:24.463Z,28.87
2017-12-06T03:42:51.997Z,21.07
2017-12-06T03:45:19.724Z,23.13
2017-12-06T03:47:47.233Z,28.07
2017-12-06T03:50:14.943Z,32.50
2017-12-06T03:52:42.448Z,45.40
2017-12-06T03:55:10.128Z,27.37
2017-12-06T03:57:37.636Z,38.20
2017-12-06T04:00:05.696Z,32.93
2017-12-06T04:02:33.207Z,30.77
2017-12-06T04:05:00.832Z,35.40
2017-12-06T04:07:29.108Z,28.00
2017-12-06T04:09:56.743Z,32.87
2017-12-06T04:12:24.263Z,33.00
2017-12-06T04:14:51.848Z,33.93
2017-12-06T04:17:20.303Z,27.60
2017-12-06T04:19:48.017Z,26.83
2017-12-06T04:22:15.571Z,28.30
2017-12-06T04:24:43.093Z,30.07
2017-12-06T04:27:10.898Z,28.53
2017-12-06T04:29:39.228Z,27.43
2017-12-06T04:32:06.848Z,31.17
2017-12-06T04:34:34.760Z,34.73
2017-12-06T04:37:02.328Z,21.50
2017-12-06T04:39:29.828Z,29.30
2017-12-06T04:41:58.347Z,25.90
2017-12-06T04:44:26.258Z,22.40
2017-12-06T04:46:54.737Z,25.83
2017-12-06T04:49:22.504Z,34.03
2017-12-06T04:51:50.005Z,17.83
2017-12-06T04:54:18.830Z,25.10
2017-12-06T04:56:47.281Z,28.43
2017-12-06T04:59:15.396Z,32.70
2017-12-06T05:01:43.427Z,29.00
2017-12-06T05:04:12.284Z,31.83
2017-12-06T05:06:40.835Z,25.37
2017-12-06T05:09:08.350Z,21.40
2017-12-06T05:11:36.251Z,44.20
2017-12-06T05:14:04.180Z,32.40
2017-12-06T05:16:31.917Z,23.37
2017-12-06T05:18:59.411Z,27.10
2017-12-06T05:21:27.688Z,26.83
2017-12-06T05:23:55.192Z,25.63
2017-12-06T05:26:22.943Z,28.30
2017-12-06T05:28:50.454Z,27.53
2017-12-06T05:31:18.167Z,33.07
2017-12-06T05:33:46.060Z,38.43
2017-12-06T05:36:14.327Z,37.90
2017-12-06T05:38:42.232Z,30.37
2017-12-06T05:41:09.828Z,29.97
2017-12-06T05:43:38.352Z,28.63
2017-12-06T05:46:06.622Z,28.13
2017-12-06T05:48:34.141Z,24.70
2017-12-06T05:51:01.916Z,36.40
2017-12-06T05:53:29.411Z,32.87
2017-12-06T05:55:57.363Z,34.97
2017-12-06T05:58:25.103Z,33.33
2017-12-06T06:00:52.610Z,30.20
2017-12-06T06:03:20.128Z,44.73
2017-12-06T06:05:48.038Z,29.30
2017-12-06T06:08:15.545Z,36.13
2017-12-06T06:10:43.408Z,28.50
2017-12-06T06:13:11.299Z,39.47
2017-12-06T06:15:38.815Z,46.63
2017-12-06T06:18:06.318Z,25.37
2017-12-06T06:20:35.075Z,31.67
2017-12-06T06:23:02.617Z,25.10
2017-12-06T06:25:30.311Z,34.57
2017-12-06T06:27:57.936Z,21.40
2017-12-06T06:30:25.540Z,25.17
2017-12-06T06:32:53.184Z,31.03
2017-12-06T06:35:20.670Z,42.87
2017-12-06T06:37:48.180Z,26.03
2017-12-06T06:40:15.761Z,25.73
2017-12-06T06:42:43.687Z,28.83
2017-12-06T06:45:11.171Z,23.90
2017-12-06T06:47:39.473Z,24.93
2017-12-06T06:50:06.979Z,16.40
2017-12-06T06:52:35.904Z,20.00
2017-12-06T06:55:03.667Z,22.90
2017-12-06T06:57:31.175Z,19.50
2017-12-06T06:59:58.760Z,17.70
2017-12-06T07:02:26.290Z,27.97
2017-12-06T07:04:53.884Z,18.73
2017-12-06T07:07:22.515Z,22.10
2017-12-06T07:09:50.921Z,23.83
2017-12-06T07:12:19.360Z,20.73
2017-12-06T07:14:47.864Z,19.57
2017-12-06T07:17:15.892Z,17.63
2017-12-06T07:19:49.392Z,20.50
2017-12-06T07:22:17.375Z,25.80
2017-12-06T07:24:45.432Z,22.50
2017-12-06T07:27:12.944Z,21.43
2017-12-06T07:29:40.653Z,22.80
2017-12-06T07:32:08.185Z,27.30
2017-12-06T07:34:35.680Z,24.63
2017-12-06T07:37:03.319Z,25.77
2017-12-06T07:39:30.827Z,19.87
2017-12-06T07:41:58.548Z,27.40
2017-12-06T07:44:26.058Z,22.33
2017-12-06T07:46:53.820Z,38.10
2017-12-06T07:49:21.567Z,26.77
2017-12-06T07:51:49.440Z,23.07
2017-12-06T07:54:17.708Z,21.60
2017-12-06T07:56:45.269Z,24.00
2017-12-06T07:59:12.857Z,33.93
2017-12-06T08:01:41.032Z,17.93
2017-12-06T08:04:08.692Z,22.07
2017-12-06T08:06:36.487Z,18.07
2017-12-06T08:09:03.994Z,17.80
2017-12-06T08:11:32.261Z,20.57
2017-12-06T08:13:59.785Z,28.27
2017-12-06T08:16:27.968Z,17.90
2017-12-06T08:18:55.892Z,20.47
2017-12-06T08:21:23.383Z,18.53
2017-12-06T08:23:50.893Z,17.37
2017-12-06T08:26:18.560Z,15.03
2017-12-06T08:28:46.363Z,12.33
2017-12-06T08:31:13.863Z,29.70
2017-12-06T08:33:41.371Z,21.60
2017-12-06T08:36:09.322Z,17.17
2017-12-06T08:38:36.952Z,18.00
2017-12-06T08:41:04.878Z,20.17
2017-12-06T08:43:32.395Z,23.93
2017-12-06T08:46:00.091Z,25.47
2017-12-06T08:48:27.648Z,19.20
2017-12-06T08:50:55.308Z,16.57
2017-12-06T08:53:22.927Z,21.73
2017-12-06T08:55:51.210Z,20.87
2017-12-06T08:58:18.720Z,17.57
2017-12-06T09:00:46.346Z,15.50
2017-12-06T09:03:14.227Z,14.67
2017-12-06T09:05:41.747Z,22.70
2017-12-06T09:08:09.323Z,15.70
2017-12-06T09:10:37.519Z,18.07
2017-12-06T09:13:05.176Z,16.77
2017-12-06T09:15:33.252Z,24.80
2017-12-06T09:18:00.773Z,21.43
2017-12-06T09:20:28.263Z,19.13
2017-12-06T09:22:56.161Z,19.70
2017-12-06T09:25:23.691Z,13.67
2017-12-06T09:27:51.208Z,13.60
2017-12-06T09:30:18.907Z,14.07
2017-12-06T09:32:47.287Z,17.47
2017-12-06T09:35:14.779Z,21.23
2017-12-06T09:37:42.407Z,12.50
2017-12-06T09:40:09.901Z,15.13
2017-12-06T09:42:37.420Z,14.50
2017-12-06T09:45:04.915Z,11.50
2017-12-06T09:47:32.527Z,16.80
2017-12-06T09:50:00.028Z,15.30
2017-12-06T09:52:27.556Z,15.13
2017-12-06T09:54:55.325Z,24.63
2017-12-06T09:57:22.837Z,17.40
2017-12-06T09:59:50.537Z,11.70
2017-12-06T10:02:18.263Z,10.33
2017-12-06T10:04:45.755Z,10.83
2017-12-06T10:07:13.520Z,9.00
2017-12-06T10:09:41.024Z,13.23
2017-12-06T10:12:08.540Z,15.70
2017-12-06T10:14:36.056Z,13.60
2017-12-06T10:17:03.653Z,11.30
2017-12-06T10:19:31.416Z,15.20
2017-12-06T10:21:58.915Z,11.83
2017-12-06T10:24:26.635Z,15.90
2017-12-06T10:26:55.016Z,11.23
2017-12-06T10:29:22.519Z,11.00
2017-12-06T10:31:50.239Z,10.43
2017-12-06T10:34:17.996Z,6.17
2017-12-06T10:36:46.771Z,7.00
2017-12-06T10:39:15.407Z,10.57
2017-12-06T10:41:44.051Z,11.90
2017-12-06T10:44:11.552Z,11.30
2017-12-06T10:46:39.580Z,11.70
2017-12-06T10:49:07.083Z,5.93
2017-12-06T10:51:34.584Z,14.83
2017-12-06T10:54:02.260Z,13.37
2017-12-06T10:56:29.750Z,11.77
2017-12-06T10:58:57.256Z,10.37
2017-12-06T11:01:24.752Z,17.27
2017-12-06T11:03:52.632Z,5.13
2017-12-06T11:06:20.234Z,11.03
2017-12-06T11:08:48.879Z,7.70
2017-12-06T11:11:16.608Z,12.63
2017-12-06T11:13:44.100Z,12.27
2017-12-06T11:16:12.044Z,9.43
2017-12-06T11:18:40.508Z,7.13
2017-12-06T11:21:08.018Z,11.50
2017-12-06T11:23:36.077Z,7.90
2017-12-06T11:26:04.107Z,12.60
2017-12-06T11:28:31.616Z,10.70
2017-12-06T11:30:59.635Z,10.40
2017-12-06T11:33:27.180Z,10.20
2017-12-06T11:35:54.788Z,12.50
2017-12-06T11:38:22.312Z,14.97
2017-12-06T11:40:49.815Z,16.40
2017-12-06T11:43:17.493Z,14.77
2017-12-06T11:45:45.004Z,14.00
2017-12-06T11:48:12.505Z,16.80
2017-12-06T11:50:40.839Z,14.17
2017-12-06T11:53:08.584Z,10.13
2017-12-06T11:55:36.351Z,13.00
2017-12-06T11:58:03.855Z,13.87
2017-12-06T12:00:31.352Z,9.43
2017-12-06T12:02:59.003Z,11.43
2017-12-06T12:05:27.373Z,14.77
2017-12-06T12:07:55.171Z,14.33
2017-12-06T12:10:22.932Z,13.53
2017-12-06T12:12:50.435Z,17.00
2017-12-06T12:15:18.344Z,11.13
2017-12-06T12:17:45.916Z,13.33
2017-12-06T12:20:13.414Z,16.73
2017-12-06T12:22:41.135Z,43.63
2017-12-06T12:25:08.896Z,23.40
2017-12-06T12:27:36.602Z,10.73
2017-12-06T12:30:04.115Z,12.23
2017-12-06T12:32:31.617Z,15.17
2017-12-06T12:35:00.051Z,15.57
2017-12-06T12:37:27.557Z,10.63
2017-12-06T12:39:56.174Z,11.63
2017-12-06T12:42:23.855Z,13.87
2017-12-06T12:44:51.393Z,19.23
2017-12-06T12:47:20.077Z,8.43
2017-12-06T12:49:48.729Z,11.23
2017-12-06T12:52:16.236Z,10.77
2017-12-06T12:54:44.136Z,14.27
2017-12-06T12:57:12.400Z,6.67
2017-12-06T12:59:39.907Z,14.43
2017-12-06T13:02:07.807Z,11.20
2017-12-06T13:04:35.309Z,14.03
2017-12-06T13:07:02.933Z,6.47
2017-12-06T13:09:30.595Z,15.37
2017-12-06T13:11:58.099Z,10.53
2017-12-06T13:14:26.008Z,5.40
2017-12-06T13:16:53.513Z,24.03
2017-12-06T13:19:21.021Z,10.57
2017-12-06T13:21:48.525Z,5.90
2017-12-06T13:24:17.063Z,9.30
2017-12-06T13:26:44.571Z,11.10
2017-12-06T13:29:12.748Z,7.40
2017-12-06T13:31:41.015Z,13.90
2017-12-06T13:34:08.523Z,6.43
2017-12-06T13:36:36.019Z,7.77
2017-12-06T13:39:04.440Z,8.17
2017-12-06T13:41:32.776Z,5.20
2017-12-06T13:44:00.280Z,14.70
2017-12-06T13:46:27.863Z,5.93
2017-12-06T13:48:55.623Z,4.80
2017-12-06T13:51:23.123Z,4.90
2017-12-06T13:53:51.013Z,4.90
2017-12-06T13:56:18.913Z,4.60
2017-12-06T13:58:46.781Z,6.47
2017-12-06T14:01:14.676Z,4.07
2017-12-06T14:03:42.183Z,7.60
2017-12-06T14:06:09.680Z,4.17
2017-12-06T14:08:37.188Z,9.90
2017-12-06T14:11:04.987Z,5.67
2017-12-06T14:13:32.471Z,2.83
2017-12-06T14:15:59.978Z,5.30
2017-12-06T14:18:27.557Z,8.90
2017-12-06T14:20:55.186Z,13.43
2017-12-06T14:23:23.699Z,6.33
2017-12-06T14:25:51.799Z,9.57
2017-12-06T14:28:19.707Z,6.63
2017-12-06T14:30:47.285Z,4.17
2017-12-06T14:33:15.172Z,6.37
2017-12-06T14:35:43.441Z,4.63
2017-12-06T14:38:11.344Z,5.80
2017-12-06T14:40:39.891Z,5.73
2017-12-06T14:43:07.395Z,6.63
2017-12-06T14:45:34.897Z,7.40
2017-12-06T14:48:02.396Z,4.27
2017-12-06T14:50:31.471Z,19.43
2017-12-06T14:52:59.747Z,4.80
2017-12-06T14:55:27.638Z,9.70
2017-12-06T14:57:55.539Z,7.23
2017-12-06T15:00:23.427Z,7.70
2017-12-06T15:02:50.987Z,4.23
2017-12-06T15:05:18.493Z,6.90
2017-12-06T15:07:45.993Z,3.63
2017-12-06T15:10:13.499Z,4.00
2017-12-06T15:12:42.043Z,5.50
2017-12-06T15:15:09.945Z,6.37
2017-12-06T15:17:37.446Z,2.20
2017-12-06T15:20:05.023Z,4.07
2017-12-06T15:22:32.520Z,6.30
2017-12-06T15:25:00.032Z,5.20
2017-12-06T15:27:27.530Z,8.77
2017-12-06T15:29:55.025Z,7.77
2017-12-06T15:32:22.612Z,7.93
2017-12-06T15:34:50.383Z,2.37
2017-12-06T15:37:18.143Z,8.70
2017-12-06T15:39:45.942Z,2.37
2017-12-06T15:42:13.439Z,7.10
2017-12-06T15:44:40.931Z,9.77
2017-12-06T15:47:08.539Z,2.50
2017-12-06T15:49:36.032Z,4.90
2017-12-06T15:52:03.808Z,5.10
2017-12-06T15:54:31.536Z,6.77
2017-12-06T15:56:59.612Z,5.70
2017-12-06T15:59:27.111Z,12.30
2017-12-06T16:01:56.397Z,9.27
2017-12-06T16:04:23.892Z,7.53
2017-12-06T16:06:51.430Z,7.30
2017-12-06T16:09:19.307Z,5.53
2017-12-06T16:11:46.865Z,5.37
2017-12-06T16:14:14.376Z,2.93
2017-12-06T16:16:42.055Z,11.03
2017-12-06T16:19:09.821Z,5.93
2017-12-06T16:21:37.727Z,10.03
2017-12-06T16:24:05.995Z,13.00
2017-12-06T16:26:33.905Z,4.20
2017-12-06T16:29:02.415Z,7.43
2017-12-06T16:31:29.923Z,8.67
2017-12-06T16:33:57.435Z,11.27
2017-12-06T16:36:36.900Z,6.13
2017-12-06T16:39:05.457Z,25.97
2017-12-06T16:41:33.210Z,7.30
2017-12-06T16:44:00.971Z,7.87
2017-12-06T16:46:28.479Z,7.10
2017-12-06T16:48:56.248Z,9.50
2017-12-06T16:51:23.961Z,8.83
2017-12-06T16:53:51.715Z,4.93
2017-12-06T16:56:19.256Z,7.13
2017-12-06T16:58:46.941Z,13.27
2017-12-06T17:01:14.433Z,8.13
2017-12-06T17:03:42.264Z,20.33
2017-12-06T17:06:09.760Z,6.03
2017-12-06T17:08:37.658Z,4.50
2017-12-06T17:11:06.412Z,11.53
2017-12-06T17:13:33.908Z,6.77
2017-12-06T17:16:04.156Z,7.87
2017-12-06T17:18:32.451Z,8.27
2017-12-06T17:21:00.191Z,9.00
2017-12-06T17:23:27.692Z,8.13
2017-12-06T17:25:55.193Z,5.13
2017-12-06T17:28:32.695Z,6.70
2017-12-06T17:31:12.165Z,5.77
2017-12-06T17:33:39.663Z,5.20
2017-12-06T17:36:07.159Z,8.47
2017-12-06T17:38:34.668Z,6.20
2017-12-06T17:41:02.168Z,7.50
2017-12-06T17:43:29.683Z,5.00
2017-12-06T17:45:57.946Z,6.60
2017-12-06T17:48:26.230Z,7.20
2017-12-06T17:50:53.733Z,4.77
2017-12-06T17:53:21.398Z,6.23
2017-12-06T17:55:49.846Z,8.57
2017-12-06T17:58:17.340Z,9.10
2017-12-06T18:00:44.843Z,3.03
2017-12-06T18:03:12.744Z,6.87
2017-12-06T18:05:40.540Z,7.83
2017-12-06T18:08:08.620Z,4.33
2017-12-06T18:10:36.976Z,4.30
2017-12-06T18:13:04.475Z,5.37
2017-12-06T18:15:31.979Z,7.30
2017-12-06T18:17:59.482Z,7.80
2017-12-06T18:20:28.019Z,8.83
2017-12-06T18:22:55.516Z,7.67
2017-12-06T18:25:23.276Z,8.30
2017-12-06T18:27:51.006Z,7.20
2017-12-06T18:30:18.508Z,5.40
2017-12-06T18:32:46.263Z,14.60
2017-12-06T18:35:13.772Z,7.87
2017-12-06T18:37:41.327Z,13.77
2017-12-06T18:40:08.836Z,7.33
2017-12-06T18:42:37.027Z,11.93
2017-12-06T18:45:04.535Z,8.87
2017-12-06T18:47:32.047Z,14.03
2017-12-06T18:49:59.591Z,11.47
2017-12-06T18:52:27.481Z,13.70
2017-12-06T18:54:55.808Z,12.90
2017-12-06T18:57:23.321Z,13.57
2017-12-06T18:59:51.505Z,9.80
2017-12-06T19:02:18.995Z,8.43
2017-12-06T19:04:46.901Z,23.13
2017-12-06T19:07:14.416Z,11.77
2017-12-06T19:09:42.098Z,16.97
2017-12-06T19:12:09.611Z,15.30
2017-12-06T19:14:38.088Z,10.60
2017-12-06T19:17:05.596Z,12.10
2017-12-06T19:19:33.095Z,13.77
2017-12-06T19:22:00.606Z,26.40
2017-12-06T19:24:28.340Z,11.60
2017-12-06T19:26:56.107Z,11.93
2017-12-06T19:29:23.599Z,13.13
2017-12-06T19:31:52.056Z,11.50
2017-12-06T19:34:19.611Z,13.80
2017-12-06T19:36:47.133Z,15.10
2017-12-06T19:39:14.628Z,10.30
2017-12-06T19:41:42.404Z,13.00
2017-12-06T19:44:10.153Z,10.73
2017-12-06T19:46:38.031Z,11.07
2017-12-06T19:49:05.668Z,19.70
2017-12-06T19:51:33.427Z,8.93
2017-12-06T19:54:00.974Z,13.33
2017-12-06T19:56:28.531Z,10.20
2017-12-06T19:58:56.426Z,9.37
2017-12-06T20:01:23.983Z,10.20
2017-12-06T20:03:51.611Z,5.03
2017-12-06T20:06:19.500Z,7.90
2017-12-06T20:08:47.451Z,7.07
2017-12-06T20:11:15.072Z,10.73
2017-12-06T20:13:43.348Z,5.40
2017-12-06T20:16:11.044Z,8.83
2017-12-06T20:18:39.992Z,5.43
2017-12-06T20:21:07.515Z,7.30
2017-12-06T20:23:35.024Z,7.57
2017-12-06T20:26:02.734Z,6.77
2017-12-06T20:28:30.244Z,9.73
2017-12-06T20:30:57.740Z,14.60
2017-12-06T20:33:25.526Z,6.07
2017-12-06T20:35:53.180Z,7.87
2017-12-06T20:38:20.796Z,7.10
2017-12-06T20:40:49.315Z,5.90
2017-12-06T20:43:17.336Z,5.10
2017-12-06T20:45:45.240Z,8.20
2017-12-06T20:48:12.739Z,5.13
2017-12-06T20:50:41.213Z,7.43
2017-12-06T20:53:08.761Z,5.80
2017-12-06T20:55:36.267Z,8.63
2017-12-06T20:58:03.776Z,6.83
2017-12-06T21:00:31.282Z,7.00
2017-12-06T21:02:58.784Z,2.57
2017-12-06T21:05:26.341Z,9.33
2017-12-06T21:07:55.044Z,10.10
2017-12-06T21:10:22.831Z,8.10
2017-12-06T21:12:50.566Z,9.23
2017-12-06T21:15:18.337Z,7.23
2017-12-06T21:17:46.041Z,9.70
2017-12-06T21:20:14.156Z,11.00
2017-12-06T21:22:41.772Z,7.47
2017-12-06T21:25:10.036Z,13.60
2017-12-06T21:27:37.739Z,13.00
2017-12-06T21:30:05.231Z,15.03
2017-12-06T21:32:33.151Z,21.87
2017-12-06T21:35:00.747Z,15.67
2017-12-06T21:37:28.235Z,16.10
2017-12-06T21:39:55.756Z,19.27
2017-12-06T21:42:23.723Z,24.27
2017-12-06T21:44:51.776Z,21.97
2017-12-06T21:47:19.275Z,24.50
2017-12-06T21:49:46.802Z,21.43
2017-12-06T21:52:14.772Z,19.90
2017-12-06T21:54:42.508Z,25.33
2017-12-06T21:57:10.004Z,28.50
2017-12-06T21:59:38.062Z,22.57
2017-12-06T22:02:05.964Z,26.63
2017-12-06T22:04:34.231Z,23.17
2017-12-06T22:07:03.084Z,23.33
2017-12-06T22:09:30.650Z,23.23
2017-12-06T22:11:59.162Z,26.60
2017-12-06T22:14:26.692Z,29.03
2017-12-06T22:16:54.196Z,30.60
2017-12-06T22:19:21.745Z,28.60
2017-12-06T22:21:49.243Z,31.87
2017-12-06T22:24:16.748Z,30.70
2017-12-06T22:26:44.344Z,47.13
2017-12-06T22:29:12.463Z,33.47
2017-12-06T22:31:40.891Z,37.90
2017-12-06T22:34:09.552Z,35.07
2017-12-06T22:36:37.058Z,29.27
2017-12-06T22:39:05.339Z,32.47
2017-12-06T22:41:33.626Z,37.00
2017-12-06T22:44:01.131Z,37.30
2017-12-06T22:46:29.031Z,36.60
2017-12-06T22:48:56.728Z,37.77
2017-12-06T22:51:24.782Z,47.20
2017-12-06T22:53:52.309Z,40.00
2017-12-06T22:56:20.004Z,43.90
2017-12-06T22:58:47.812Z,36.80
2017-12-06T23:01:16.756Z,34.10
2017-12-06T23:03:44.461Z,37.40
2017-12-06T23:06:12.794Z,35.40
2017-12-06T23:08:40.306Z,22.67
2017-12-06T23:11:07.820Z,29.33
2017-12-06T23:13:35.328Z,37.53
2017-12-06T23:16:03.348Z,30.30
2017-12-06T23:18:31.416Z,42.13
2017-12-06T23:20:59.461Z,42.83
2017-12-06T23:23:27.975Z,33.87
2017-12-06T23:25:55.626Z,31.10
2017-12-06T23:28:23.160Z,30.93
2017-12-06T23:30:51.438Z,40.20
2017-12-06T23:33:19.051Z,34.33
2017-12-06T23:35:46.680Z,31.57
2017-12-06T23:38:14.447Z,23.50
2017-12-06T23:40:42.585Z,39.73
2017-12-06T23:43:10.292Z,22.90
2017-12-06T23:45:37.816Z,34.23
2017-12-06T23:48:05.495Z,40.30
2017-12-06T23:50:33.007Z,27.20
2017-12-06T23:53:01.004Z,31.43
2017-12-06T23:55:28.512Z,38.43
2017-12-06T23:57:56.012Z,33.43
